createdAt,value
2019-02-26T00:00:26.655Z,8.47
2019-02-26T00:05:47.825Z,8.87
2019-02-26T00:10:58.599Z,8.13
2019-02-26T00:16:05.592Z,8.03
2019-02-26T00:21:10.471Z,8.17
2019-02-26T00:26:17.761Z,8.60
2019-02-26T00:31:24.288Z,8.57
2019-02-26T00:36:34.183Z,8.80
2019-02-26T00:41:58.864Z,8.73
2019-02-26T00:47:23.011Z,9.13
2019-02-26T00:52:30.371Z,8.53
2019-02-26T00:57:38.448Z,9.90
2019-02-26T01:02:44.025Z,8.80
2019-02-26T01:07:52.105Z,9.03
2019-02-26T01:12:58.663Z,10.00
2019-02-26T01:18:20.723Z,9.30
2019-02-26T01:23:28.968Z,8.90
2019-02-26T01:28:44.149Z,8.70
2019-02-26T01:34:09.775Z,9.10
2019-02-26T01:39:16.352Z,8.40
2019-02-26T01:44:28.096Z,9.10
2019-02-26T01:49:31.594Z,10.13
2019-02-26T01:54:39.170Z,12.57
2019-02-26T01:59:44.415Z,8.83
2019-02-26T02:04:50.383Z,10.10
2019-02-26T02:09:58.266Z,9.57
2019-02-26T02:15:08.087Z,8.90
2019-02-26T02:20:19.385Z,8.77
2019-02-26T02:25:23.200Z,7.90
2019-02-26T02:30:31.379Z,7.93
2019-02-26T02:35:36.270Z,8.40
2019-02-26T02:40:43.304Z,8.67
2019-02-26T02:45:49.975Z,9.30
2019-02-26T02:50:56.318Z,8.40
2019-02-26T02:56:03.746Z,8.07
2019-02-26T03:01:10.256Z,7.47
2019-02-26T03:06:15.867Z,9.07
2019-02-26T03:11:22.112Z,8.40
2019-02-26T03:16:27.721Z,8.97
2019-02-26T03:21:33.223Z,7.43
2019-02-26T03:26:38.762Z,8.83
2019-02-26T03:31:47.130Z,9.70
2019-02-26T03:36:51.554Z,9.40
2019-02-26T03:41:57.184Z,8.20
2019-02-26T03:47:03.226Z,9.20
2019-02-26T03:52:08.820Z,8.87
2019-02-26T03:57:16.642Z,9.27
2019-02-26T04:02:23.491Z,8.70
2019-02-26T04:07:30.251Z,8.60
2019-02-26T04:12:41.836Z,8.83
2019-02-26T04:17:44.485Z,10.37
2019-02-26T04:22:53.293Z,8.53
2019-02-26T04:28:40.429Z,9.10
2019-02-26T04:34:31.371Z,9.90
2019-02-26T04:40:14.301Z,8.40
2019-02-26T04:46:17.805Z,10.60
2019-02-26T04:51:35.853Z,9.10
2019-02-26T04:56:42.833Z,9.57
2019-02-26T05:01:49.910Z,9.47
2019-02-26T05:06:55.728Z,8.50
2019-02-26T05:12:03.585Z,10.10
2019-02-26T05:17:11.633Z,9.37
2019-02-26T05:22:19.834Z,9.37
2019-02-26T05:27:25.432Z,10.13
2019-02-26T05:32:33.397Z,8.73
2019-02-26T05:37:40.992Z,10.17
2019-02-26T05:42:49.699Z,10.60
2019-02-26T05:47:58.668Z,10.03
2019-02-26T05:53:05.524Z,12.13
2019-02-26T05:58:12.573Z,10.30
2019-02-26T06:03:19.828Z,11.47
2019-02-26T06:08:32.282Z,10.53
2019-02-26T06:13:38.266Z,10.60
2019-02-26T06:18:46.511Z,9.70
2019-02-26T06:23:55.715Z,15.13
2019-02-26T06:29:03.055Z,12.43
2019-02-26T06:34:11.298Z,11.60
2019-02-26T06:39:20.257Z,11.77
2019-02-26T06:44:47.138Z,11.43
2019-02-26T06:49:54.223Z,11.80
2019-02-26T06:55:03.545Z,11.37
2019-02-26T07:00:26.918Z,12.37
2019-02-26T07:05:33.659Z,10.40
2019-02-26T07:10:39.569Z,10.30
2019-02-26T07:15:45.424Z,10.97
2019-02-26T07:20:53.134Z,10.83
2019-02-26T07:26:00.349Z,11.47
2019-02-26T07:31:08.123Z,10.37
2019-02-26T07:36:13.592Z,10.97
2019-02-26T07:41:31.492Z,11.50
2019-02-26T07:46:38.515Z,10.43
2019-02-26T07:51:44.346Z,14.60
2019-02-26T07:56:52.361Z,13.23
2019-02-26T08:01:57.544Z,12.53
2019-02-26T08:07:03.778Z,12.40
2019-02-26T08:12:11.254Z,12.23
2019-02-26T08:17:17.717Z,11.80
2019-02-26T08:22:24.837Z,12.73
2019-02-26T08:27:33.853Z,12.20
2019-02-26T08:32:40.088Z,11.90
2019-02-26T08:37:46.099Z,12.07
2019-02-26T08:42:54.880Z,12.13
2019-02-26T08:48:26.439Z,11.73
2019-02-26T08:53:31.803Z,11.60
2019-02-26T08:58:37.529Z,11.90
2019-02-26T09:03:43.957Z,10.80
2019-02-26T09:08:49.912Z,10.63
2019-02-26T09:13:59.523Z,11.37
2019-02-26T09:19:07.232Z,12.57
2019-02-26T09:24:12.790Z,12.07
2019-02-26T09:29:19.768Z,12.50
2019-02-26T09:34:28.707Z,11.27
2019-02-26T09:39:36.321Z,10.83
2019-02-26T09:44:42.601Z,11.60
2019-02-26T09:49:49.455Z,12.23
2019-02-26T09:54:55.612Z,12.17
2019-02-26T10:00:06.030Z,13.10
2019-02-26T10:05:14.102Z,11.90
2019-02-26T10:10:20.720Z,12.07
2019-02-26T10:15:45.274Z,12.63
2019-02-26T10:21:09.198Z,12.40
2019-02-26T10:26:18.647Z,12.00
2019-02-26T10:31:27.493Z,12.10
2019-02-26T10:36:34.765Z,11.57
2019-02-26T10:41:41.808Z,11.50
2019-02-26T10:46:47.258Z,9.60
2019-02-26T10:51:52.854Z,10.47
2019-02-26T10:57:00.433Z,11.50
2019-02-26T11:02:06.794Z,11.47
2019-02-26T11:07:14.208Z,9.40
2019-02-26T11:12:33.986Z,10.20
2019-02-26T11:17:38.683Z,9.83
2019-02-26T11:22:49.754Z,9.20
2019-02-26T11:27:55.978Z,10.20
2019-02-26T11:33:38.360Z,8.33
2019-02-26T11:38:47.066Z,7.97
2019-02-26T11:43:53.183Z,7.80
2019-02-26T11:48:58.771Z,9.07
2019-02-26T11:54:17.691Z,9.40
2019-02-26T11:59:23.864Z,8.03
2019-02-26T12:04:29.501Z,7.53
2019-02-26T12:09:38.548Z,7.57
2019-02-26T12:14:47.949Z,8.63
2019-02-26T12:19:53.432Z,8.57
2019-02-26T12:25:01.837Z,7.77
2019-02-26T12:30:10.701Z,7.00
2019-02-26T12:35:17.963Z,7.03
2019-02-26T12:40:25.529Z,6.47
2019-02-26T12:45:31.808Z,6.87
2019-02-26T12:50:40.479Z,6.53
2019-02-26T12:55:45.641Z,6.70
2019-02-26T13:00:51.302Z,7.50
2019-02-26T13:05:56.861Z,7.20
2019-02-26T13:11:02.534Z,8.00
2019-02-26T13:16:16.690Z,6.90
2019-02-26T13:21:23.375Z,7.70
2019-02-26T13:27:00.982Z,8.70
2019-02-26T13:32:13.098Z,7.63
2019-02-26T13:37:15.608Z,7.73
2019-02-26T13:42:21.637Z,8.20
2019-02-26T13:47:31.086Z,8.30
2019-02-26T13:52:37.053Z,8.70
2019-02-26T13:57:42.607Z,8.70
2019-02-26T14:02:50.222Z,9.13
2019-02-26T14:07:56.139Z,8.70
2019-02-26T14:13:03.807Z,9.30
2019-02-26T14:18:11.258Z,9.13
2019-02-26T14:23:34.984Z,8.20
2019-02-26T14:28:44.108Z,8.00
2019-02-26T14:33:57.312Z,8.13
2019-02-26T14:39:05.879Z,9.43
2019-02-26T14:44:17.136Z,8.80
2019-02-26T14:49:22.763Z,8.73
2019-02-26T14:54:32.972Z,8.13
2019-02-26T14:59:48.164Z,8.50
2019-02-26T15:04:53.812Z,8.70
2019-02-26T15:10:00.470Z,9.30
2019-02-26T15:15:10.774Z,8.67
2019-02-26T15:20:18.101Z,8.20
2019-02-26T15:25:24.806Z,8.07
2019-02-26T15:30:30.412Z,8.50
2019-02-26T15:35:35.980Z,8.30
2019-02-26T15:40:42.538Z,9.23
2019-02-26T15:45:52.065Z,8.67
2019-02-26T15:50:55.514Z,8.53
2019-02-26T15:56:02.114Z,9.47
2019-02-26T16:01:15.756Z,8.83
2019-02-26T16:06:21.479Z,9.10
2019-02-26T16:11:27.095Z,9.03
2019-02-26T16:16:34.471Z,8.90
2019-02-26T16:21:40.260Z,10.80
2019-02-26T16:26:46.041Z,14.90
2019-02-26T16:31:52.101Z,12.70
2019-02-26T16:36:57.818Z,10.27
2019-02-26T16:42:05.444Z,10.10
2019-02-26T16:47:12.653Z,10.07
2019-02-26T16:52:19.558Z,8.77
2019-02-26T16:57:28.184Z,8.80
2019-02-26T17:02:34.500Z,11.50
2019-02-26T17:07:45.030Z,10.50
2019-02-26T17:12:54.147Z,11.50
2019-02-26T17:18:10.357Z,12.20
2019-02-26T17:23:21.938Z,9.30
2019-02-26T17:28:30.812Z,9.63
2019-02-26T17:33:36.822Z,10.83
2019-02-26T17:38:45.556Z,10.23
2019-02-26T17:43:53.937Z,9.97
2019-02-26T17:49:02.625Z,9.93
2019-02-26T17:54:19.405Z,9.90
2019-02-26T17:59:33.107Z,9.83
2019-02-26T18:04:40.307Z,9.30
2019-02-26T18:09:46.028Z,9.53
2019-02-26T18:14:56.095Z,11.37
2019-02-26T18:20:02.026Z,10.80
2019-02-26T18:25:11.995Z,11.23
2019-02-26T18:30:22.171Z,12.50
2019-02-26T18:35:32.240Z,13.97
2019-02-26T18:40:40.617Z,16.73
2019-02-26T18:45:48.612Z,14.00
2019-02-26T18:50:56.104Z,13.63
2019-02-26T18:56:05.473Z,11.00
2019-02-26T19:01:11.312Z,11.37
2019-02-26T19:06:18.498Z,13.60
2019-02-26T19:11:26.115Z,11.20
2019-02-26T19:16:37.554Z,11.50
2019-02-26T19:21:46.932Z,12.20
2019-02-26T19:26:53.981Z,13.90
2019-02-26T19:32:04.781Z,14.83
2019-02-26T19:37:12.300Z,13.80
2019-02-26T19:42:21.099Z,12.70
2019-02-26T19:47:29.087Z,13.77
2019-02-26T19:52:34.853Z,13.57
2019-02-26T19:57:41.705Z,16.03
2019-02-26T20:02:48.281Z,16.30
2019-02-26T20:07:58.437Z,14.37
2019-02-26T20:13:12.294Z,22.80
2019-02-26T20:18:20.649Z,20.50
2019-02-26T20:23:24.176Z,17.23
2019-02-26T20:28:29.927Z,14.57
2019-02-26T20:33:36.346Z,13.20
2019-02-26T20:38:42.114Z,16.27
2019-02-26T20:43:53.778Z,15.70
2019-02-26T20:49:05.785Z,16.60
2019-02-26T20:54:16.840Z,17.93
2019-02-26T20:59:23.236Z,15.87
2019-02-26T21:04:28.978Z,16.73
2019-02-26T21:09:40.768Z,16.30
2019-02-26T21:14:44.331Z,15.53
2019-02-26T21:19:50.059Z,14.10
2019-02-26T21:24:56.636Z,13.83
2019-02-26T21:30:11.827Z,13.83
2019-02-26T21:35:20.675Z,15.13
2019-02-26T21:40:33.331Z,14.70
2019-02-26T21:45:39.792Z,16.20
2019-02-26T21:50:47.727Z,18.37
2019-02-26T21:55:53.405Z,20.20
2019-02-26T22:01:02.164Z,19.80
2019-02-26T22:06:11.039Z,17.17
2019-02-26T22:11:19.170Z,17.77
2019-02-26T22:16:25.102Z,15.70
2019-02-26T22:21:31.465Z,21.57
2019-02-26T22:26:37.145Z,17.03
2019-02-26T22:31:42.838Z,15.10
2019-02-26T22:36:48.595Z,14.87
2019-02-26T22:41:54.219Z,15.70
2019-02-26T22:47:00.233Z,14.17
2019-02-26T22:52:10.917Z,14.53
2019-02-26T22:57:18.645Z,14.13
2019-02-26T23:02:24.885Z,14.20
2019-02-26T23:07:30.409Z,14.30
2019-02-26T23:12:36.238Z,13.63
2019-02-26T23:17:41.812Z,14.13
2019-02-26T23:22:47.503Z,13.77
2019-02-26T23:27:55.692Z,14.47
2019-02-26T23:33:03.113Z,14.10
2019-02-26T23:38:11.452Z,14.20
2019-02-26T23:43:17.449Z,14.80
2019-02-26T23:54:07.185Z,13.53
2019-02-26T23:59:15.804Z,12.73
